• Join FlightAware (Why Join?)
  • Login
  • US Flag 
01:48AM EDT


 

Airport Tracker/Info


-or-


 

Live Flight TrackerFlight Track Log ✈ SWA154 ✈ 26-May-2014 ✈ KDAL - KELP

Flight Track Log - Related Links

Times and Time Zones

All times are in EDT time to prevent confusion due to time zone crossing. See the SWA154 flight status page for this flight to view local times or setup timezone preferences in your user account.

Time Position Orientation Groundspeed Altitude Reporting Facility
EDT Latitude Longitude Course Direction KTS MPH feet Rate Location/Type
08:14AM 32.7833 -96.7667 258° West 223 257 4,100  Level Dallas / Fort Worth TRACON
08:15AM 32.7175 -96.7742 185° South 221 254 6,600 2,700 Climbing Fort Worth Center
08:16AM 32.6603 -96.8225 215° Southwest 266 306 9,700 3,180 Climbing Fort Worth Center
08:17AM 32.6628 -96.9239 272° West 297 342 13,100 3,060 Climbing Fort Worth Center
08:18AM 32.6694 -97.0253 274° West 305 351 16,000 2,280 Climbing Fort Worth Center
08:19AM 32.7315 -97.6520 258° West  Level FlightAware Approximate
08:19AM 32.6772 -97.1358 275° West 335 386 17,800  Level Fort Worth Center
08:20AM 32.6853 -97.2633 274° West 386 444 19,400 1,980 Climbing Fort Worth Center
08:21AM 32.6928 -97.3978 274° West 406 467 21,900 2,280 Climbing Fort Worth Center
08:22AM 32.6997 -97.5239 274° West 407 468 24,100 2,220 Climbing Fort Worth Center
08:23AM 32.7072 -97.6569 274° West 405 466 26,500 1,800 Climbing Fort Worth Center
08:24AM 32.7144 -97.7931 274° West 409 471 27,800 1,980 Climbing Fort Worth Center
08:25AM 32.7033 -97.9272 264° West 410 472 30,600 1,980 Climbing Fort Worth Center
08:26AM 32.6933 -98.0564 265° West 396 456 31,800 1,860 Climbing Fort Worth Center
08:27AM 32.6822 -98.1858 264° West 396 456 34,400 1,800 Climbing Fort Worth Center
08:28AM 32.6717 -98.3086 264° West 378 435 35,500 1,260 Climbing Fort Worth Center
08:29AM 32.6586 -98.4492 264° West 375 432 37,000 720 Climbing Fort Worth Center
08:30AM 32.6503 -98.5642 265° West 356 410 37,000  Level Fort Worth Center
08:31AM 32.6394 -98.6781 264° West 350 403 37,000  Level Fort Worth Center
08:32AM 32.6283 -98.7911 263° West 349 402 37,000  Level Fort Worth Center
08:33AM 32.6192 -98.9022 264° West 342 394 37,000  Level Fort Worth Center
08:34AM 32.6083 -99.0122 263° West 336 387 37,000  Level Fort Worth Center
08:35AM 32.5975 -99.1236 263° West 338 389 37,000  Level Fort Worth Center
08:36AM 32.5881 -99.2353 264° West 338 389 37,000  Level Fort Worth Center
08:37AM 32.5764 -99.3467 263° West 339 390 37,000  Level Fort Worth Center
08:38AM 32.5647 -99.4578 263° West 339 390 37,000  Level Fort Worth Center
08:39AM 32.5533 -99.5697 263° West 342 394 37,000  Level Fort Worth Center
08:40AM 32.5422 -99.6822 263° West 341 392 37,000  Level Fort Worth Center
08:41AM 32.5300 -99.7944 263° West 340 391 37,000  Level Fort Worth Center
08:42AM 32.5197 -99.9086 264° West 341 392 37,000  Level Fort Worth Center
08:43AM 32.5086 -100.0211 263° West 341 392 37,000  Level Fort Worth Center
08:44AM 32.4964 -100.1550 264° West 342 394 37,000  Level Fort Worth Center
08:45AM 32.4844 -100.2675 263° West 345 397 37,000  Level Fort Worth Center
08:46AM 32.4733 -100.3800 263° West 344 396 37,000  Level Fort Worth Center
08:47AM 32.4614 -100.4928 263° West 347 399 37,000  Level Fort Worth Center
08:48AM 32.4500 -100.6072 263° West 352 405 37,000  Level Fort Worth Center
08:49AM 32.4378 -100.7225 263° West 352 405 37,000  Level Fort Worth Center
08:50AM 32.4256 -100.8383 263° West 357 411 37,000  Level Fort Worth Center
08:51AM 32.4128 -100.9556 263° West 360 414 37,000  Level Fort Worth Center
08:52AM 32.3989 -101.0753 262° West 366 421 37,000  Level Fort Worth Center
08:53AM 32.3864 -101.1967 263° West 372 428 37,000  Level Fort Worth Center
08:54AM 32.3719 -101.3197 262° West 375 432 37,000  Level Fort Worth Center
08:55AM 32.3589 -101.4400 263° West 373 429 37,000  Level Fort Worth Center
08:56AM 32.3447 -101.5572 262° West 364 419 37,000  Level Fort Worth Center
08:57AM 32.3311 -101.6747 262° West 364 419 37,000  Level Fort Worth Center
08:58AM 32.3181 -101.7925 263° West 366 421 37,000  Level Fort Worth Center
08:59AM 32.3008 -101.9356 262° West 367 422 37,000 -60 Level Fort Worth Center
09:00AM 32.2853 -102.0581 261° West 371 427 36,900 -360 Descending Fort Worth Center
09:02AM 32.2711 -102.1822 262° West 375 432 36,300 -480 Descending Fort Worth Center
09:03AM 32.2553 -102.3117 262° West 391 450 36,000 -180 Descending Fort Worth Center
09:04AM 32.2406 -102.4439 263° West 398 458 36,000  Level Fort Worth Center
09:05AM 32.2244 -102.5756 262° West 399 459 36,000  Level Fort Worth Center
09:06AM 32.2097 -102.7033 262° West 398 458 36,000  Level Fort Worth Center
09:07AM 32.1933 -102.8297 261° West 392 451 36,000  Level Fort Worth Center
09:08AM 32.1772 -102.9550 261° West 387 445 36,000  Level Fort Worth Center
09:09AM 32.1628 -103.0775 262° West 379 436 36,000  Level Fort Worth Center
09:10AM 32.1469 -103.1986 261° West 378 435 36,000  Level Fort Worth Center
09:11AM 32.1308 -103.3197 261° West 376 433 36,000  Level Fort Worth Center
09:12AM 32.1156 -103.4411 262° West 375 432 36,000  Level Fort Worth Center
09:13AM 32.0958 -103.5864 261° West 375 432 36,000  Level Fort Worth Center
09:13AM 32.0867 -103.6597 262° West 376 433 36,000  Level Albuquerque Center
09:14AM 32.0703 -103.7806 261° West 375 432 36,000  Level Albuquerque Center
09:15AM 32.0544 -103.9036 261° West 377 434 36,000  Level Albuquerque Center
09:16AM 32.0372 -104.0261 261° West 377 434 36,000  Level Albuquerque Center
09:18AM 32.0217 -104.1483 261° West 377 434 36,000  Level Albuquerque Center
09:19AM 32.0050 -104.2717 261° West 378 435 36,000 -480 Level Albuquerque Center
09:20AM 31.9869 -104.3969 260° West 383 441 35,100 -960 Descending Albuquerque Center
09:21AM 31.9736 -104.5217 263° West 385 443 34,100 -1,080 Descending Albuquerque Center
09:22AM 31.9583 -104.6761 263° West 392 451 33,000 -1,020 Descending Albuquerque Center
09:23AM 31.9453 -104.7925 262° West 396 456 32,100 -1,620 Descending Albuquerque Center
09:24AM 31.9317 -104.9225 263° West 398 458 29,800 -2,400 Descending Albuquerque Center
09:25AM 31.9192 -105.0481 263° West 393 452 27,300 -2,400 Descending Albuquerque Center
09:26AM 31.9117 -105.1639 266° West 365 420 25,000 -2,520 Descending Albuquerque Center
09:27AM 31.8925 -105.3111 261° West 357 411 22,000 -2,580 Descending Albuquerque Center
09:28AM 31.8772 -105.4453 262° West 354 407 19,300 -2,280 Descending Albuquerque Center
09:29AM 31.8736 -105.5325 267° West 356 410 17,800 -2,040 Descending Albuquerque Center
09:29AM 31.8725 -105.5569 267° West 346 398 17,300 -2,280 Descending Albuquerque Center
09:30AM 31.8747 -105.6406 272° West 336 387 15,500 -2,280 Descending Albuquerque Center
09:30AM 31.8733 -105.6644 266° West 328 377 15,000 -2,220 Descending Albuquerque Center
09:31AM 31.8725 -105.7458 269° West 326 375 13,300 -2,220 Descending Albuquerque Center
09:31AM 31.8739 -105.7694 274° West 319 367 12,800 -2,220 Descending Albuquerque Center
09:32AM 31.8733 -105.8475 270° West 316 364 11,100 -2,220 Descending Albuquerque Center
09:32AM 31.8711 -105.8703 263° West 307 353 10,600 -1,140 Descending Albuquerque Center
09:33AM 31.8711 -105.9433 270° West 296 341 10,000 -720 Descending Albuquerque Center
09:33AM 31.8692 -105.9633 263° West 280 322 9,900 -1,320 Descending Albuquerque Center
09:34AM 31.8675 -106.0289 268° West 266 306 8,700 -1,500 Descending Albuquerque Center
09:34AM 31.8647 -106.0547 263° West 258 297 8,400 -1,980 Descending Albuquerque Center
09:35AM 31.8644 -106.1211 270° West 264 304 6,700 -1,920 Descending Albuquerque Center
09:35AM 31.8636 -106.1425 267° West 266 306 6,500 -240 Descending Albuquerque Center
09:36AM 31.8622 -106.2039 268° West 253 291 6,500 -240 Level Albuquerque Center
09:36AM 31.8625 -106.2178 271° West 224 258 6,300 -900 Descending Albuquerque Center
09:37AM 31.8592 -106.2811 266° West 179 206 5,400 -720 Descending Albuquerque Center
09:38AM 31.8511 -106.3306 259° West 143 165 4,900 -720 Descending Albuquerque Center
09:39AM 31.8300 -106.3581 228° Southwest 150 173 4,200 -960 Descending Albuquerque Center
09:41AM 31.8000 -106.3667 270° West  Level FlightAware Approximate
09:48AM 31.8072 -106.3764 270° West  Level Estimated
09:49AM 31.8072 -106.3764 270° West  Level Estimated
09:50AM 31.8072 -106.3764 270° West  Level Estimated
09:51AM 31.8072 -106.3764 270° West  Level Estimated